Time,TemperatureF,DewpointF,PressureIn,WindDirection,WindDirectionDegrees,WindSpeedMPH,WindSpeedGustMPH,Humidity,HourlyPrecipIn,Conditions,Clouds,dailyrainin,SoftwareType,DateUTC
2013-09-17 00:01:00,79.8,74.9,29.91,South,176,0.0,2.0,85,0.00,,---,0.13,VWS V14.01,2013-09-17 04:01:00,
2013-09-17 00:02:00,79.8,74.9,29.91,South,176,0.0,2.0,85,0.00,,---,0.00,VWS V14.01,2013-09-17 04:02:00,
2013-09-17 00:07:00,80.0,75.1,29.91,South,176,0.0,1.0,85,0.00,,---,0.00,VWS V14.01,2013-09-17 04:07:00,
2013-09-17 00:12:00,80.1,75.2,29.91,South,176,0.0,0.0,85,0.00,,---,0.00,VWS V14.01,2013-09-17 04:12:00,
2013-09-17 00:17:00,80.1,74.8,29.91,South,176,0.0,2.0,84,0.00,,---,0.00,VWS V14.01,2013-09-17 04:17:00,
2013-09-17 00:22:00,80.1,74.8,29.91,South,176,5.0,5.0,84,0.00,,---,0.00,VWS V14.01,2013-09-17 04:22:00,
2013-09-17 00:27:00,80.1,74.8,29.91,South,176,0.0,1.0,84,0.00,,---,0.00,VWS V14.01,2013-09-17 04:27:00,
2013-09-17 00:32:00,80.2,74.9,29.91,South,176,0.0,0.0,84,0.00,,---,0.00,VWS V14.01,2013-09-17 04:32:00,
2013-09-17 00:37:00,80.3,75.0,29.91,South,176,2.0,8.0,84,0.00,,---,0.00,VWS V14.01,2013-09-17 04:37:00,
2013-09-17 00:42:00,80.2,74.9,29.91,South,176,8.0,8.0,84,0.00,,---,0.00,VWS V14.01,2013-09-17 04:42:00,
2013-09-17 00:47:00,80.2,74.9,29.91,South,176,0.0,1.0,84,0.00,,---,0.00,VWS V14.01,2013-09-17 04:47:00,
2013-09-17 00:52:00,80.3,75.0,29.91,South,176,0.0,1.0,84,0.00,,---,0.00,VWS V14.01,2013-09-17 04:52:00,
2013-09-17 00:57:00,80.3,75.0,29.91,South,176,0.0,0.0,84,0.00,,---,0.00,VWS V14.01,2013-09-17 04:57:00,
2013-09-17 01:02:00,80.3,75.0,29.91,South,176,0.0,0.0,84,0.00,,---,0.00,VWS V14.01,2013-09-17 05:02:00,
2013-09-17 01:07:00,80.3,75.0,29.91,South,176,0.0,4.0,84,0.00,,---,0.00,VWS V14.01,2013-09-17 05:07:00,
2013-09-17 01:12:00,80.3,75.0,29.91,South,176,4.0,4.0,84,0.00,,---,0.00,VWS V14.01,2013-09-17 05:12:00,
2013-09-17 01:17:00,80.3,75.0,29.90,South,177,4.0,7.0,84,0.00,,---,0.00,VWS V14.01,2013-09-17 05:17:00,
2013-09-17 01:22:00,80.3,75.0,29.90,South,176,0.0,4.0,84,0.00,,---,0.00,VWS V14.01,2013-09-17 05:22:00,
2013-09-17 01:27:00,80.3,74.7,29.90,South,176,4.0,4.0,83,0.00,,---,0.00,VWS V14.01,2013-09-17 05:27:00,
2013-09-17 01:32:00,80.3,74.7,29.89,South,176,1.0,2.0,83,0.00,,---,0.00,VWS V14.01,2013-09-17 05:32:00,
2013-09-17 01:37:00,80.5,75.2,29.89,South,176,0.0,2.0,84,0.00,,---,0.00,VWS V14.01,2013-09-17 05:37:00,
2013-09-17 01:42:00,80.4,74.8,29.89,South,176,2.0,6.0,83,0.00,,---,0.00,VWS V14.01,2013-09-17 05:42:00,
2013-09-17 01:47:00,80.4,74.8,29.88,South,176,1.0,1.0,83,0.00,,---,0.00,VWS V14.01,2013-09-17 05:47:00,
2013-09-17 01:52:00,80.4,74.8,29.88,South,176,0.0,0.0,83,0.00,,---,0.00,VWS V14.01,2013-09-17 05:52:00,
2013-09-17 01:57:00,80.4,74.8,29.88,South,176,6.0,6.0,83,0.00,,---,0.00,VWS V14.01,2013-09-17 05:57:00,
2013-09-17 02:02:00,80.4,74.8,29.88,South,176,0.0,1.0,83,0.00,,---,0.00,VWS V14.01,2013-09-17 06:02:00,
2013-09-17 02:07:00,80.5,74.9,29.88,South,176,0.0,0.0,83,0.00,,---,0.00,VWS V14.01,2013-09-17 06:07:00,
2013-09-17 02:12:00,80.5,75.2,29.88,South,176,0.0,0.0,84,0.00,,---,0.00,VWS V14.01,2013-09-17 06:12:00,
2013-09-17 02:17:00,80.5,75.2,29.88,South,176,2.0,2.0,84,0.00,,---,0.00,VWS V14.01,2013-09-17 06:17:00,
2013-09-17 02:22:00,80.4,75.1,29.88,South,176,0.0,0.0,84,0.00,,---,0.00,VWS V14.01,2013-09-17 06:22:00,
2013-09-17 02:27:00,80.3,74.7,29.88,South,176,0.0,1.0,83,0.00,,---,0.00,VWS V14.01,2013-09-17 06:27:00,
2013-09-17 02:32:00,80.4,75.1,29.88,South,176,0.0,1.0,84,0.00,,---,0.00,VWS V14.01,2013-09-17 06:32:00,
2013-09-17 02:37:00,80.3,75.0,29.88,South,176,5.0,6.0,84,0.00,,---,0.00,VWS V14.01,2013-09-17 06:37:00,
2013-09-17 02:42:00,80.5,75.2,29.88,South,176,0.0,0.0,84,0.00,,---,0.00,VWS V14.01,2013-09-17 06:42:00,
2013-09-17 02:47:00,80.5,75.2,29.88,South,176,0.0,0.0,84,0.00,,---,0.00,VWS V14.01,2013-09-17 06:47:00,
2013-09-17 02:52:00,80.3,74.7,29.88,South,176,2.0,2.0,83,0.00,,---,0.00,VWS V14.01,2013-09-17 06:52:00,
2013-09-17 02:57:00,80.4,75.1,29.88,South,176,1.0,1.0,84,0.00,,---,0.00,VWS V14.01,2013-09-17 06:57:00,
2013-09-17 03:02:00,80.4,75.1,29.87,South,176,0.0,1.0,84,0.00,,---,0.00,VWS V14.01,2013-09-17 07:02:00,
2013-09-17 03:07:00,80.4,75.1,29.87,South,176,1.0,1.0,84,0.00,,---,0.00,VWS V14.01,2013-09-17 07:07:00,
2013-09-17 03:12:00,80.5,75.2,29.87,South,177,0.0,0.0,84,0.00,,---,0.00,VWS V14.01,2013-09-17 07:12:00,
2013-09-17 03:17:00,80.5,75.2,29.87,South,177,1.0,1.0,84,0.00,,---,0.00,VWS V14.01,2013-09-17 07:17:00,
2013-09-17 03:22:00,80.5,75.2,29.87,South,176,0.0,0.0,84,0.00,,---,0.00,VWS V14.01,2013-09-17 07:22:00,
2013-09-17 03:27:00,80.5,75.2,29.87,South,176,0.0,0.0,84,0.00,,---,0.00,VWS V14.01,2013-09-17 07:27:00,
2013-09-17 03:32:00,80.5,74.9,29.87,South,176,0.0,7.0,83,0.00,,---,0.00,VWS V14.01,2013-09-17 07:32:00,
2013-09-17 03:37:00,80.6,75.0,29.87,South,176,0.0,1.0,83,0.00,,---,0.00,VWS V14.01,2013-09-17 07:37:00,
2013-09-17 03:42:00,80.6,75.0,29.87,South,176,0.0,1.0,83,0.00,,---,0.00,VWS V14.01,2013-09-17 07:42:00,
2013-09-17 03:47:00,80.8,75.2,29.87,South,176,0.0,0.0,83,0.00,,---,0.00,VWS V14.01,2013-09-17 07:47:00,
2013-09-17 03:52:00,80.8,75.2,29.87,South,176,0.0,1.0,83,0.00,,---,0.00,VWS V14.01,2013-09-17 07:52:00,
2013-09-17 03:57:00,80.8,75.2,29.87,South,176,0.0,1.0,83,0.00,,---,0.00,VWS V14.01,2013-09-17 07:57:00,
2013-09-17 04:02:00,80.7,75.1,29.87,South,176,0.0,1.0,83,0.00,,---,0.00,VWS V14.01,2013-09-17 08:02:00,
2013-09-17 04:07:00,80.7,75.1,29.87,South,176,1.0,1.0,83,0.00,,---,0.00,VWS V14.01,2013-09-17 08:07:00,
2013-09-17 04:12:00,80.7,75.1,29.87,South,176,1.0,2.0,83,0.00,,---,0.00,VWS V14.01,2013-09-17 08:12:00,
2013-09-17 04:17:00,80.7,75.1,29.87,South,176,0.0,9.0,83,0.00,,---,0.00,VWS V14.01,2013-09-17 08:17:00,
2013-09-17 04:22:00,80.9,75.6,29.87,South,176,1.0,2.0,84,0.00,,---,0.00,VWS V14.01,2013-09-17 08:22:00,
2013-09-17 04:27:00,81.0,75.7,29.87,South,176,1.0,1.0,84,0.00,,---,0.00,VWS V14.01,2013-09-17 08:27:00,
2013-09-17 04:32:00,81.0,75.7,29.87,South,176,6.0,6.0,84,0.00,,---,0.00,VWS V14.01,2013-09-17 08:32:00,
2013-09-17 04:37:00,80.9,75.6,29.87,South,176,1.0,1.0,84,0.00,,---,0.00,VWS V14.01,2013-09-17 08:37:00,
2013-09-17 04:42:00,80.9,75.6,29.87,South,176,4.0,7.0,84,0.00,,---,0.00,VWS V14.01,2013-09-17 08:42:00,
2013-09-17 04:47:00,80.9,75.6,29.87,South,176,8.0,8.0,84,0.00,,---,0.00,VWS V14.01,2013-09-17 08:47:00,
2013-09-17 04:52:00,80.9,75.6,29.87,South,176,6.0,6.0,84,0.00,,---,0.00,VWS V14.01,2013-09-17 08:52:00,
2013-09-17 04:57:00,80.9,75.6,29.87,South,177,0.0,1.0,84,0.00,,---,0.00,VWS V14.01,2013-09-17 08:57:00,
2013-09-17 05:02:00,81.0,75.7,29.87,South,176,0.0,5.0,84,0.00,,---,0.00,VWS V14.01,2013-09-17 09:02:00,
2013-09-17 05:07:00,80.9,75.6,29.87,South,177,0.0,4.0,84,0.00,,---,0.00,VWS V14.01,2013-09-17 09:07:00,
2013-09-17 05:12:00,81.0,75.7,29.87,South,176,0.0,0.0,84,0.00,,---,0.00,VWS V14.01,2013-09-17 09:12:00,
2013-09-17 05:17:00,80.9,75.6,29.87,South,176,0.0,0.0,84,0.00,,---,0.00,VWS V14.01,2013-09-17 09:17:00,
2013-09-17 05:22:00,80.9,76.0,29.87,South,176,0.0,0.0,85,0.00,,---,0.00,VWS V14.01,2013-09-17 09:22:00,
2013-09-17 05:27:00,80.9,75.6,29.87,South,176,0.0,1.0,84,0.00,,---,0.00,VWS V14.01,2013-09-17 09:27:00,
2013-09-17 05:32:00,80.9,76.0,29.88,South,176,0.0,1.0,85,0.00,,---,0.00,VWS V14.01,2013-09-17 09:32:00,
2013-09-17 05:37:00,80.9,76.0,29.88,South,176,1.0,1.0,85,0.00,,---,0.00,VWS V14.01,2013-09-17 09:37:00,
2013-09-17 05:42:00,80.9,76.0,29.88,South,176,0.0,5.0,85,0.00,,---,0.00,VWS V14.01,2013-09-17 09:42:00,
2013-09-17 05:47:00,80.5,74.5,29.88,South,176,8.0,9.0,82,0.00,,---,0.00,VWS V14.01,2013-09-17 09:47:00,
2013-09-17 05:52:00,78.9,72.2,29.88,South,176,14.0,16.0,80,0.00,,---,0.00,VWS V14.01,2013-09-17 09:52:00,
2013-09-17 05:57:00,78.5,71.8,29.88,South,176,12.0,13.0,80,0.00,,---,0.00,VWS V14.01,2013-09-17 09:57:00,
2013-09-17 06:02:00,78.5,72.2,29.88,South,176,10.0,11.0,81,0.00,,---,0.00,VWS V14.01,2013-09-17 10:02:00,
2013-09-17 06:07:00,78.5,72.6,29.88,South,176,8.0,9.0,82,0.00,,---,0.00,VWS V14.01,2013-09-17 10:07:00,
2013-09-17 06:12:00,78.6,72.7,29.88,South,176,7.0,8.0,82,0.00,,---,0.00,VWS V14.01,2013-09-17 10:12:00,
2013-09-17 06:17:00,78.7,73.1,29.88,South,176,10.0,10.0,83,0.01,,---,0.01,VWS V14.01,2013-09-17 10:17:00,
2013-09-17 06:22:00,78.2,73.0,29.88,South,176,13.0,14.0,84,0.01,,---,0.01,VWS V14.01,2013-09-17 10:22:00,
2013-09-17 06:27:00,77.1,72.2,29.88,South,176,11.0,14.0,85,0.04,,---,0.04,VWS V14.01,2013-09-17 10:27:00,
2013-09-17 06:32:00,76.2,71.0,29.89,South,176,7.0,10.0,84,0.05,,---,0.05,VWS V14.01,2013-09-17 10:32:00,
2013-09-17 06:37:00,75.6,70.8,29.89,South,176,0.0,1.0,85,0.05,,---,0.05,VWS V14.01,2013-09-17 10:37:00,
2013-09-17 06:42:00,75.5,71.0,29.89,South,176,0.0,0.0,86,0.06,,---,0.06,VWS V14.01,2013-09-17 10:42:00,
2013-09-17 06:47:00,75.5,71.4,29.90,South,176,0.0,0.0,87,0.07,,---,0.07,VWS V14.01,2013-09-17 10:47:00,
2013-09-17 06:52:00,76.2,72.4,29.90,South,176,0.0,2.0,88,0.07,,---,0.07,VWS V14.01,2013-09-17 10:52:00,
2013-09-17 06:57:00,76.5,73.0,29.90,South,176,8.0,9.0,89,0.07,,---,0.07,VWS V14.01,2013-09-17 10:57:00,
2013-09-17 07:02:00,76.8,73.3,29.90,South,176,0.0,0.0,89,0.07,,---,0.07,VWS V14.01,2013-09-17 11:02:00,
2013-09-17 07:07:00,76.8,73.0,29.90,South,176,0.0,1.0,88,0.07,,---,0.07,VWS V14.01,2013-09-17 11:07:00,
2013-09-17 07:12:00,77.2,73.4,29.90,South,176,0.0,0.0,88,0.07,,---,0.07,VWS V14.01,2013-09-17 11:12:00,
2013-09-17 07:17:00,77.6,73.4,29.90,South,176,0.0,2.0,87,0.06,,---,0.07,VWS V14.01,2013-09-17 11:17:00,
2013-09-17 07:22:00,78.1,73.9,29.90,South,176,0.0,1.0,87,0.06,,---,0.07,VWS V14.01,2013-09-17 11:22:00,
2013-09-17 07:27:00,78.8,74.6,29.90,South,177,0.0,0.0,87,0.03,,---,0.07,VWS V14.01,2013-09-17 11:27:00,
2013-09-17 07:32:00,79.2,75.3,29.90,South,176,0.0,0.0,88,0.02,,---,0.07,VWS V14.01,2013-09-17 11:32:00,
2013-09-17 07:37:00,79.3,75.1,29.90,South,177,0.0,0.0,87,0.02,,---,0.07,VWS V14.01,2013-09-17 11:37:00,
2013-09-17 07:42:00,78.5,74.0,29.90,South,176,0.0,0.0,86,0.01,,---,0.07,VWS V14.01,2013-09-17 11:42:00,
2013-09-17 07:47:00,78.0,73.8,29.90,South,176,0.0,0.0,87,0.00,,---,0.07,VWS V14.01,2013-09-17 11:47:00,
2013-09-17 07:52:00,78.6,75.1,29.90,South,176,0.0,1.0,89,0.00,,---,0.07,VWS V14.01,2013-09-17 11:52:00,
2013-09-17 07:57:00,79.1,75.6,29.90,South,176,0.0,0.0,89,0.00,,---,0.07,VWS V14.01,2013-09-17 11:57:00,
2013-09-17 08:02:00,79.5,75.6,29.90,South,176,0.0,0.0,88,0.00,,---,0.07,VWS V14.01,2013-09-17 12:02:00,
2013-09-17 08:07:00,79.7,75.8,29.90,South,176,0.0,0.0,88,0.00,,---,0.07,VWS V14.01,2013-09-17 12:07:00,
2013-09-17 08:12:00,79.8,75.6,29.90,South,176,0.0,0.0,87,0.00,,---,0.07,VWS V14.01,2013-09-17 12:12:00,
2013-09-17 08:17:00,80.2,76.3,29.91,South,176,0.0,0.0,88,0.00,,---,0.07,VWS V14.01,2013-09-17 12:17:00,
2013-09-17 08:22:00,80.3,76.1,29.91,South,176,0.0,0.0,87,0.00,,---,0.07,VWS V14.01,2013-09-17 12:22:00,
2013-09-17 08:27:00,80.1,75.5,29.91,South,176,0.0,0.0,86,0.00,,---,0.07,VWS V14.01,2013-09-17 12:27:00,
2013-09-17 08:32:00,80.0,75.4,29.91,South,176,0.0,0.0,86,0.00,,---,0.07,VWS V14.01,2013-09-17 12:32:00,
2013-09-17 08:37:00,79.9,75.7,29.91,South,176,0.0,1.0,87,0.00,,---,0.07,VWS V14.01,2013-09-17 12:37:00,
2013-09-17 08:42:00,79.9,75.7,29.91,South,176,0.0,0.0,87,0.00,,---,0.07,VWS V14.01,2013-09-17 12:42:00,
2013-09-17 08:47:00,79.4,74.8,29.92,South,176,2.0,7.0,86,0.00,,---,0.07,VWS V14.01,2013-09-17 12:47:00,
2013-09-17 08:52:00,78.5,74.3,29.92,South,176,8.0,16.0,87,0.00,,---,0.07,VWS V14.01,2013-09-17 12:52:00,
2013-09-17 08:57:00,77.4,73.2,29.92,South,177,6.0,8.0,87,0.00,,---,0.07,VWS V14.01,2013-09-17 12:57:00,
2013-09-17 09:02:00,76.7,72.9,29.93,South,176,5.0,11.0,88,0.00,,---,0.07,VWS V14.01,2013-09-17 13:02:00,
2013-09-17 09:07:00,76.5,73.0,29.93,South,176,7.0,8.0,89,0.00,,---,0.07,VWS V14.01,2013-09-17 13:07:00,
2013-09-17 09:12:00,76.2,72.7,29.93,South,176,1.0,1.0,89,0.01,,---,0.08,VWS V14.01,2013-09-17 13:12:00,
2013-09-17 09:17:00,75.9,72.8,29.93,South,176,5.0,10.0,90,0.02,,---,0.09,VWS V14.01,2013-09-17 13:17:00,
2013-09-17 09:22:00,75.7,72.6,29.93,South,176,0.0,0.0,90,0.03,,---,0.10,VWS V14.01,2013-09-17 13:22:00,
2013-09-17 09:27:00,75.4,72.3,29.93,South,176,0.0,0.0,90,0.03,,---,0.10,VWS V14.01,2013-09-17 13:27:00,
2013-09-17 09:32:00,75.3,72.2,29.94,South,177,0.0,0.0,90,0.03,,---,0.10,VWS V14.01,2013-09-17 13:32:00,
2013-09-17 09:37:00,75.5,72.7,29.94,South,176,0.0,0.0,91,0.03,,---,0.10,VWS V14.01,2013-09-17 13:37:00,
2013-09-17 09:42:00,75.7,72.9,29.94,South,176,0.0,0.0,91,0.04,,---,0.11,VWS V14.01,2013-09-17 13:42:00,
2013-09-17 09:47:00,76.0,73.5,29.94,South,176,7.0,10.0,92,0.04,,---,0.11,VWS V14.01,2013-09-17 13:47:00,
2013-09-17 09:52:00,76.4,73.9,29.94,South,176,8.0,12.0,92,0.05,,---,0.12,VWS V14.01,2013-09-17 13:52:00,
2013-09-17 09:57:00,76.5,73.7,29.94,South,177,14.0,18.0,91,0.05,,---,0.12,VWS V14.01,2013-09-17 13:57:00,
2013-09-17 10:02:00,76.5,73.3,29.95,South,176,15.0,16.0,90,0.05,,---,0.12,VWS V14.01,2013-09-17 14:02:00,
2013-09-17 10:07:00,76.8,74.0,29.95,South,176,13.0,14.0,91,0.05,,---,0.12,VWS V14.01,2013-09-17 14:07:00,
2013-09-17 10:12:00,77.2,74.4,29.95,South,176,14.0,14.0,91,0.04,,---,0.12,VWS V14.01,2013-09-17 14:12:00,
2013-09-17 10:17:00,76.9,73.8,29.95,South,176,10.0,11.0,90,0.03,,---,0.12,VWS V14.01,2013-09-17 14:17:00,
2013-09-17 10:22:00,77.2,73.7,29.95,South,176,13.0,14.0,89,0.02,,---,0.12,VWS V14.01,2013-09-17 14:22:00,
2013-09-17 10:27:00,77.6,74.1,29.95,South,176,14.0,14.0,89,0.02,,---,0.12,VWS V14.01,2013-09-17 14:27:00,
2013-09-17 10:32:00,77.9,74.4,29.96,South,176,12.0,13.0,89,0.02,,---,0.12,VWS V14.01,2013-09-17 14:32:00,
2013-09-17 10:37:00,77.9,74.1,29.96,South,176,10.0,12.0,88,0.02,,---,0.12,VWS V14.01,2013-09-17 14:37:00,
2013-09-17 10:42:00,77.9,74.1,29.96,South,176,5.0,13.0,88,0.01,,---,0.12,VWS V14.01,2013-09-17 14:42:00,
2013-09-17 10:47:00,78.1,74.3,29.95,South,177,11.0,11.0,88,0.01,,---,0.12,VWS V14.01,2013-09-17 14:47:00,
2013-09-17 10:52:00,78.2,74.4,29.95,South,176,9.0,11.0,88,0.01,,---,0.12,VWS V14.01,2013-09-17 14:52:00,
2013-09-17 10:57:00,78.5,74.3,29.95,South,176,12.0,12.0,87,0.00,,---,0.12,VWS V14.01,2013-09-17 14:57:00,
2013-09-17 11:02:00,78.7,74.5,29.95,South,176,7.0,12.0,87,0.00,,---,0.12,VWS V14.01,2013-09-17 15:02:00,
2013-09-17 11:07:00,78.7,74.5,29.95,South,176,4.0,6.0,87,0.00,,---,0.12,VWS V14.01,2013-09-17 15:07:00,
2013-09-17 11:12:00,79.2,74.7,29.95,South,176,6.0,10.0,86,0.00,,---,0.12,VWS V14.01,2013-09-17 15:12:00,
2013-09-17 11:17:00,79.6,74.7,29.94,South,177,7.0,10.0,85,0.00,,---,0.12,VWS V14.01,2013-09-17 15:17:00,
2013-09-17 11:22:00,79.9,75.0,29.94,South,176,2.0,2.0,85,0.00,,---,0.12,VWS V14.01,2013-09-17 15:22:00,
2013-09-17 11:27:00,80.3,75.0,29.94,South,176,1.0,2.0,84,0.00,,---,0.12,VWS V14.01,2013-09-17 15:27:00,
2013-09-17 11:32:00,80.6,75.0,29.94,South,176,10.0,10.0,83,0.00,,---,0.12,VWS V14.01,2013-09-17 15:32:00,
2013-09-17 11:37:00,80.7,75.1,29.94,South,176,12.0,14.0,83,0.00,,---,0.12,VWS V14.01,2013-09-17 15:37:00,
2013-09-17 11:42:00,80.9,74.9,29.94,South,176,11.0,11.0,82,0.00,,---,0.12,VWS V14.01,2013-09-17 15:42:00,
2013-09-17 11:47:00,81.0,75.3,29.95,South,176,10.0,11.0,83,0.00,,---,0.12,VWS V14.01,2013-09-17 15:47:00,
2013-09-17 11:52:00,81.1,75.4,29.95,South,176,12.0,13.0,83,0.00,,---,0.12,VWS V14.01,2013-09-17 15:52:00,
2013-09-17 11:57:00,81.2,75.6,29.95,South,176,10.0,11.0,83,0.00,,---,0.12,VWS V14.01,2013-09-17 15:57:00,
2013-09-17 12:02:00,81.2,75.9,29.96,South,176,11.0,11.0,84,0.00,,---,0.12,VWS V14.01,2013-09-17 16:02:00,
2013-09-17 12:07:00,81.1,75.8,29.96,South,176,10.0,10.0,84,0.00,,---,0.12,VWS V14.01,2013-09-17 16:07:00,
2013-09-17 12:12:00,80.9,75.3,29.96,South,176,9.0,10.0,83,0.00,,---,0.12,VWS V14.01,2013-09-17 16:12:00,
2013-09-17 12:17:00,80.9,75.3,29.95,South,176,8.0,10.0,83,0.00,,---,0.12,VWS V14.01,2013-09-17 16:17:00,
2013-09-17 12:22:00,81.1,75.4,29.95,South,176,6.0,8.0,83,0.00,,---,0.12,VWS V14.01,2013-09-17 16:22:00,
2013-09-17 12:27:00,81.2,75.6,29.95,South,176,7.0,9.0,83,0.00,,---,0.12,VWS V14.01,2013-09-17 16:27:00,
2013-09-17 12:32:00,81.2,75.6,29.95,South,176,7.0,10.0,83,0.00,,---,0.12,VWS V14.01,2013-09-17 16:32:00,
2013-09-17 12:37:00,81.3,75.7,29.95,South,176,9.0,9.0,83,0.00,,---,0.12,VWS V14.01,2013-09-17 16:37:00,
2013-09-17 12:42:00,81.3,75.7,29.95,South,176,0.0,0.0,83,0.00,,---,0.12,VWS V14.01,2013-09-17 16:42:00,
2013-09-17 12:47:00,81.5,75.5,29.95,South,176,0.0,0.0,82,0.00,,---,0.12,VWS V14.01,2013-09-17 16:47:00,
2013-09-17 12:52:00,81.6,75.6,29.95,South,176,10.0,10.0,82,0.00,,---,0.12,VWS V14.01,2013-09-17 16:52:00,
2013-09-17 12:57:00,81.7,75.7,29.95,South,176,8.0,9.0,82,0.00,,---,0.12,VWS V14.01,2013-09-17 16:57:00,
2013-09-17 13:02:00,81.5,75.5,29.94,South,176,9.0,9.0,82,0.00,,---,0.12,VWS V14.01,2013-09-17 17:02:00,
2013-09-17 13:07:00,81.5,75.5,29.94,South,176,9.0,10.0,82,0.00,,---,0.12,VWS V14.01,2013-09-17 17:07:00,
2013-09-17 13:12:00,81.7,75.7,29.94,South,176,0.0,0.0,82,0.00,,---,0.12,VWS V14.01,2013-09-17 17:12:00,
2013-09-17 13:17:00,81.9,75.9,29.92,South,176,0.0,0.0,82,0.00,,---,0.12,VWS V14.01,2013-09-17 17:17:00,
2013-09-17 13:22:00,81.9,76.2,29.92,South,176,0.0,0.0,83,0.00,,---,0.12,VWS V14.01,2013-09-17 17:22:00,
2013-09-17 13:27:00,81.9,76.2,29.92,South,176,0.0,0.0,83,0.00,,---,0.12,VWS V14.01,2013-09-17 17:27:00,
2013-09-17 13:32:00,81.9,75.9,29.92,South,176,0.0,0.0,82,0.00,,---,0.12,VWS V14.01,2013-09-17 17:32:00,
2013-09-17 13:37:00,81.8,75.8,29.92,South,176,0.0,0.0,82,0.00,,---,0.12,VWS V14.01,2013-09-17 17:37:00,
2013-09-17 13:42:00,81.7,75.7,29.92,South,176,0.0,0.0,82,0.00,,---,0.12,VWS V14.01,2013-09-17 17:42:00,
2013-09-17 13:47:00,81.8,75.8,29.91,South,176,0.0,0.0,82,0.00,,---,0.12,VWS V14.01,2013-09-17 17:47:00,
2013-09-17 13:52:00,82.0,76.0,29.91,South,176,0.0,0.0,82,0.00,,---,0.12,VWS V14.01,2013-09-17 17:52:00,
2013-09-17 13:57:00,82.2,76.2,29.91,South,176,0.0,0.0,82,0.00,,---,0.12,VWS V14.01,2013-09-17 17:57:00,
2013-09-17 14:02:00,82.3,76.3,29.90,South,176,0.0,0.0,82,0.00,,---,0.12,VWS V14.01,2013-09-17 18:02:00,
2013-09-17 14:07:00,81.9,75.1,29.90,South,176,16.0,19.0,80,0.00,,---,0.12,VWS V14.01,2013-09-17 18:07:00,
2013-09-17 14:12:00,80.1,73.0,29.90,South,176,16.0,23.0,79,0.00,,---,0.12,VWS V14.01,2013-09-17 18:12:00,
2013-09-17 14:17:00,79.4,73.8,29.91,South,176,4.0,10.0,83,0.00,,---,0.12,VWS V14.01,2013-09-17 18:17:00,
2013-09-17 14:22:00,78.7,73.5,29.91,South,176,6.0,10.0,84,0.00,,---,0.12,VWS V14.01,2013-09-17 18:22:00,
2013-09-17 14:27:00,78.2,73.3,29.91,South,177,8.0,8.0,85,0.00,,---,0.12,VWS V14.01,2013-09-17 18:27:00,
2013-09-17 14:32:00,77.7,73.2,29.91,South,176,7.0,7.0,86,0.01,,---,0.13,VWS V14.01,2013-09-17 18:32:00,
2013-09-17 14:37:00,77.3,73.1,29.91,South,177,4.0,8.0,87,0.04,,---,0.16,VWS V14.01,2013-09-17 18:37:00,
2013-09-17 14:42:00,76.8,72.3,29.91,South,176,9.0,10.0,86,0.07,,---,0.19,VWS V14.01,2013-09-17 18:42:00,
2013-09-17 14:47:00,76.7,72.5,29.90,South,176,7.0,8.0,87,0.09,,---,0.21,VWS V14.01,2013-09-17 18:47:00,
2013-09-17 14:52:00,77.0,73.5,29.90,South,176,0.0,0.0,89,0.10,,---,0.22,VWS V14.01,2013-09-17 18:52:00,
2013-09-17 14:57:00,77.5,74.0,29.90,South,176,0.0,0.0,89,0.11,,---,0.23,VWS V14.01,2013-09-17 18:57:00,
2013-09-17 15:02:00,77.5,74.3,29.89,South,176,0.0,0.0,90,0.11,,---,0.23,VWS V14.01,2013-09-17 19:02:00,
2013-09-17 15:07:00,77.6,74.4,29.89,South,176,0.0,0.0,90,0.11,,---,0.23,VWS V14.01,2013-09-17 19:07:00,
2013-09-17 15:12:00,78.0,75.2,29.89,South,176,6.0,6.0,91,0.11,,---,0.23,VWS V14.01,2013-09-17 19:12:00,
2013-09-17 15:17:00,77.9,75.1,29.89,South,176,4.0,7.0,91,0.11,,---,0.23,VWS V14.01,2013-09-17 19:17:00,
2013-09-17 15:22:00,77.6,74.8,29.89,South,176,12.0,12.0,91,0.11,,---,0.23,VWS V14.01,2013-09-17 19:22:00,
2013-09-17 15:27:00,77.2,74.4,29.89,South,176,6.0,8.0,91,0.11,,---,0.23,VWS V14.01,2013-09-17 19:27:00,
2013-09-17 15:32:00,76.8,74.0,29.88,South,177,4.0,11.0,91,0.10,,---,0.23,VWS V14.01,2013-09-17 19:32:00,
2013-09-17 15:37:00,76.5,73.7,29.88,South,176,15.0,15.0,91,0.10,,---,0.25,VWS V14.01,2013-09-17 19:37:00,
2013-09-17 15:42:00,76.0,72.9,29.88,South,176,8.0,14.0,90,0.07,,---,0.26,VWS V14.01,2013-09-17 19:42:00,
2013-09-17 15:47:00,75.8,73.0,29.88,South,177,5.0,14.0,91,0.06,,---,0.27,VWS V14.01,2013-09-17 19:47:00,
2013-09-17 15:52:00,75.5,72.7,29.88,South,176,8.0,10.0,91,0.05,,---,0.27,VWS V14.01,2013-09-17 19:52:00,
2013-09-17 15:57:00,75.5,72.4,29.88,South,176,8.0,9.0,90,0.04,,---,0.27,VWS V14.01,2013-09-17 19:57:00,
2013-09-17 16:02:00,75.8,72.7,29.87,South,176,4.0,10.0,90,0.04,,---,0.27,VWS V14.01,2013-09-17 20:02:00,
2013-09-17 16:07:00,76.4,73.2,29.87,South,176,1.0,7.0,90,0.04,,---,0.27,VWS V14.01,2013-09-17 20:07:00,
2013-09-17 16:12:00,76.9,73.8,29.87,South,176,5.0,9.0,90,0.04,,---,0.27,VWS V14.01,2013-09-17 20:12:00,
2013-09-17 16:17:00,77.0,73.5,29.88,South,176,2.0,7.0,89,0.04,,---,0.27,VWS V14.01,2013-09-17 20:17:00,
2013-09-17 16:22:00,77.4,73.6,29.88,South,176,4.0,5.0,88,0.04,,---,0.27,VWS V14.01,2013-09-17 20:22:00,
2013-09-17 16:27:00,77.7,73.5,29.88,South,176,1.0,4.0,87,0.04,,---,0.27,VWS V14.01,2013-09-17 20:27:00,
2013-09-17 16:32:00,78.2,74.0,29.88,South,176,8.0,8.0,87,0.04,,---,0.27,VWS V14.01,2013-09-17 20:32:00,
2013-09-17 16:37:00,78.6,74.4,29.88,South,176,2.0,5.0,87,0.02,,---,0.27,VWS V14.01,2013-09-17 20:37:00,
2013-09-17 16:42:00,78.9,74.7,29.88,South,176,0.0,2.0,87,0.01,,---,0.27,VWS V14.01,2013-09-17 20:42:00,
2013-09-17 16:47:00,79.3,75.4,29.87,South,176,0.0,1.0,88,0.00,,---,0.27,VWS V14.01,2013-09-17 20:47:00,
2013-09-17 16:52:00,79.5,75.6,29.87,South,177,0.0,6.0,88,0.00,,---,0.27,VWS V14.01,2013-09-17 20:52:00,
2013-09-17 16:57:00,79.7,76.2,29.87,South,176,0.0,4.0,89,0.00,,---,0.27,VWS V14.01,2013-09-17 20:57:00,
2013-09-17 17:02:00,79.8,76.3,29.88,South,176,1.0,1.0,89,0.00,,---,0.27,VWS V14.01,2013-09-17 21:02:00,
2013-09-17 17:07:00,79.4,75.5,29.88,South,176,11.0,12.0,88,0.00,,---,0.27,VWS V14.01,2013-09-17 21:07:00,
2013-09-17 17:12:00,78.8,75.3,29.88,South,176,7.0,8.0,89,0.00,,---,0.27,VWS V14.01,2013-09-17 21:12:00,
2013-09-17 17:17:00,78.5,75.0,29.87,South,176,7.0,9.0,89,0.00,,---,0.27,VWS V14.01,2013-09-17 21:17:00,
2013-09-17 17:22:00,78.3,74.8,29.87,South,176,0.0,0.0,89,0.00,,---,0.27,VWS V14.01,2013-09-17 21:22:00,
2013-09-17 17:27:00,78.3,74.8,29.87,South,176,0.0,0.0,89,0.00,,---,0.27,VWS V14.01,2013-09-17 21:27:00,
2013-09-17 17:32:00,78.6,75.1,29.87,South,176,0.0,0.0,89,0.00,,---,0.27,VWS V14.01,2013-09-17 21:32:00,
2013-09-17 17:37:00,78.9,75.4,29.87,South,177,9.0,9.0,89,0.04,,---,0.31,VWS V14.01,2013-09-17 21:37:00,
2013-09-17 17:42:00,78.7,75.2,29.87,South,176,0.0,0.0,89,0.17,,---,0.44,VWS V14.01,2013-09-17 21:42:00,
2013-09-17 17:47:00,77.7,74.2,29.87,South,176,0.0,2.0,89,0.26,,---,0.53,VWS V14.01,2013-09-17 21:47:00,
2013-09-17 17:53:00,77.5,74.3,29.87,South,176,0.0,0.0,90,0.27,,---,0.54,VWS V14.01,2013-09-17 21:53:00,
2013-09-17 17:58:00,77.3,74.1,29.87,South,176,0.0,1.0,90,0.27,,---,0.54,VWS V14.01,2013-09-17 21:58:00,
2013-09-17 18:03:00,77.1,74.3,29.87,South,176,0.0,0.0,91,0.27,,---,0.54,VWS V14.01,2013-09-17 22:03:00,
2013-09-17 18:08:00,77.2,74.4,29.87,South,176,0.0,0.0,91,0.27,,---,0.54,VWS V14.01,2013-09-17 22:08:00,
2013-09-17 18:13:00,77.3,74.5,29.87,South,176,0.0,0.0,91,0.28,,---,0.55,VWS V14.01,2013-09-17 22:13:00,
2013-09-17 18:18:00,77.5,75.0,29.87,South,176,0.0,0.0,92,0.28,,---,0.55,VWS V14.01,2013-09-17 22:18:00,
2013-09-17 18:23:00,77.6,75.1,29.87,South,176,0.0,0.0,92,0.28,,---,0.55,VWS V14.01,2013-09-17 22:23:00,
2013-09-17 18:28:00,77.5,75.0,29.87,South,176,0.0,0.0,92,0.28,,---,0.55,VWS V14.01,2013-09-17 22:28:00,
2013-09-17 18:33:00,77.6,75.1,29.86,South,176,0.0,0.0,92,0.28,,---,0.55,VWS V14.01,2013-09-17 22:33:00,
2013-09-17 18:38:00,77.6,75.1,29.86,South,176,0.0,0.0,92,0.27,,---,0.55,VWS V14.01,2013-09-17 22:38:00,
2013-09-17 18:43:00,77.6,75.1,29.86,South,176,0.0,0.0,92,0.13,,---,0.55,VWS V14.01,2013-09-17 22:43:00,
2013-09-17 18:48:00,77.6,75.1,29.86,South,176,0.0,0.0,92,0.02,,---,0.55,VWS V14.01,2013-09-17 22:48:00,
2013-09-17 18:53:00,77.6,75.1,29.86,South,176,0.0,0.0,92,0.01,,---,0.55,VWS V14.01,2013-09-17 22:53:00,
2013-09-17 18:58:00,77.7,75.2,29.86,South,176,0.0,0.0,92,0.01,,---,0.55,VWS V14.01,2013-09-17 22:58:00,
2013-09-17 19:03:00,77.9,75.4,29.86,South,176,0.0,0.0,92,0.01,,---,0.55,VWS V14.01,2013-09-17 23:03:00,
2013-09-17 19:08:00,78.0,75.5,29.86,South,176,0.0,0.0,92,0.01,,---,0.55,VWS V14.01,2013-09-17 23:08:00,
2013-09-17 19:13:00,78.1,75.6,29.86,South,176,1.0,1.0,92,0.00,,---,0.55,VWS V14.01,2013-09-17 23:13:00,
2013-09-17 19:18:00,78.2,75.7,29.86,South,176,0.0,7.0,92,0.00,,---,0.55,VWS V14.01,2013-09-17 23:18:00,
2013-09-17 19:23:00,78.5,76.0,29.86,South,176,11.0,12.0,92,0.00,,---,0.55,VWS V14.01,2013-09-17 23:23:00,
2013-09-17 19:28:00,78.9,76.1,29.86,South,176,9.0,14.0,91,0.00,,---,0.55,VWS V14.01,2013-09-17 23:28:00,
2013-09-17 19:33:00,79.1,75.6,29.85,South,176,8.0,15.0,89,0.00,,---,0.55,VWS V14.01,2013-09-17 23:33:00,
2013-09-17 19:38:00,79.5,75.6,29.85,South,176,9.0,16.0,88,0.00,,---,0.55,VWS V14.01,2013-09-17 23:38:00,
2013-09-17 19:43:00,79.8,75.6,29.85,South,176,10.0,14.0,87,0.00,,---,0.55,VWS V14.01,2013-09-17 23:43:00,
2013-09-17 19:48:00,80.0,75.8,29.86,South,177,15.0,16.0,87,0.00,,---,0.55,VWS V14.01,2013-09-17 23:48:00,
2013-09-17 19:53:00,80.2,76.0,29.86,South,177,14.0,16.0,87,0.00,,---,0.55,VWS V14.01,2013-09-17 23:53:00,
2013-09-17 19:58:00,80.2,76.0,29.86,South,176,13.0,15.0,87,0.00,,---,0.55,VWS V14.01,2013-09-17 23:58:00,
2013-09-17 20:03:00,80.2,75.6,29.86,South,176,14.0,16.0,86,0.00,,---,0.55,VWS V14.01,2013-09-18 00:03:00,
2013-09-17 20:08:00,80.3,75.7,29.86,South,176,0.0,15.0,86,0.00,,---,0.55,VWS V14.01,2013-09-18 00:08:00,
2013-09-17 20:13:00,80.5,75.6,29.86,South,176,0.0,0.0,85,0.00,,---,0.55,VWS V14.01,2013-09-18 00:13:00,
2013-09-17 20:18:00,80.5,75.6,29.86,South,176,14.0,16.0,85,0.00,,---,0.55,VWS V14.01,2013-09-18 00:18:00,
2013-09-17 20:23:00,80.5,75.2,29.86,South,176,16.0,18.0,84,0.00,,---,0.55,VWS V14.01,2013-09-18 00:23:00,
2013-09-17 20:28:00,80.6,75.3,29.86,South,176,11.0,17.0,84,0.00,,---,0.55,VWS V14.01,2013-09-18 00:28:00,
2013-09-17 20:33:00,80.6,75.3,29.86,South,176,16.0,18.0,84,0.00,,---,0.55,VWS V14.01,2013-09-18 00:33:00,
2013-09-17 20:38:00,80.7,75.4,29.86,South,176,16.0,18.0,84,0.00,,---,0.55,VWS V14.01,2013-09-18 00:38:00,
2013-09-17 20:43:00,80.7,75.1,29.86,South,176,12.0,12.0,83,0.00,,---,0.55,VWS V14.01,2013-09-18 00:43:00,
2013-09-17 20:48:00,80.7,75.4,29.86,South,176,5.0,13.0,84,0.00,,---,0.55,VWS V14.01,2013-09-18 00:48:00,
2013-09-17 20:53:00,80.5,74.5,29.86,South,176,10.0,14.0,82,0.00,,---,0.55,VWS V14.01,2013-09-18 00:53:00,
2013-09-17 20:58:00,80.7,75.1,29.86,South,176,10.0,18.0,83,0.00,,---,0.55,VWS V14.01,2013-09-18 00:58:00,
2013-09-17 21:03:00,80.8,75.2,29.87,South,176,9.0,14.0,83,0.00,,---,0.55,VWS V14.01,2013-09-18 01:03:00,
2013-09-17 21:08:00,80.7,75.1,29.87,South,176,1.0,9.0,83,0.00,,---,0.55,VWS V14.01,2013-09-18 01:08:00,
2013-09-17 21:13:00,80.6,75.0,29.87,South,176,8.0,12.0,83,0.00,,---,0.55,VWS V14.01,2013-09-18 01:13:00,
2013-09-17 21:18:00,80.6,75.0,29.87,South,176,9.0,13.0,83,0.00,,---,0.55,VWS V14.01,2013-09-18 01:18:00,
2013-09-17 21:23:00,80.6,75.0,29.87,South,176,6.0,10.0,83,0.00,,---,0.55,VWS V14.01,2013-09-18 01:23:00,
2013-09-17 21:28:00,80.6,75.0,29.87,South,176,6.0,8.0,83,0.00,,---,0.55,VWS V14.01,2013-09-18 01:28:00,
2013-09-17 21:33:00,80.6,75.0,29.88,South,176,0.0,7.0,83,0.00,,---,0.55,VWS V14.01,2013-09-18 01:33:00,
2013-09-17 21:38:00,80.7,75.1,29.88,South,176,9.0,12.0,83,0.00,,---,0.55,VWS V14.01,2013-09-18 01:38:00,
2013-09-17 21:43:00,80.7,75.1,29.88,South,176,4.0,11.0,83,0.00,,---,0.55,VWS V14.01,2013-09-18 01:43:00,
2013-09-17 21:48:00,80.7,74.7,29.88,South,176,8.0,9.0,82,0.00,,---,0.55,VWS V14.01,2013-09-18 01:48:00,
2013-09-17 21:53:00,80.8,75.2,29.88,South,177,6.0,9.0,83,0.00,,---,0.55,VWS V14.01,2013-09-18 01:53:00,
2013-09-17 21:58:00,80.9,75.3,29.88,South,176,6.0,12.0,83,0.00,,---,0.55,VWS V14.01,2013-09-18 01:58:00,
2013-09-17 22:03:00,80.9,75.3,29.88,South,176,5.0,9.0,83,0.00,,---,0.55,VWS V14.01,2013-09-18 02:03:00,
2013-09-17 22:08:00,81.0,75.7,29.88,South,176,13.0,14.0,84,0.00,,---,0.55,VWS V14.01,2013-09-18 02:08:00,
2013-09-17 22:13:00,80.9,75.6,29.88,South,176,5.0,15.0,84,0.00,,---,0.55,VWS V14.01,2013-09-18 02:13:00,
2013-09-17 22:18:00,80.9,76.0,29.88,South,176,10.0,11.0,85,0.00,,---,0.55,VWS V14.01,2013-09-18 02:18:00,
2013-09-17 22:23:00,80.8,75.9,29.88,South,176,9.0,14.0,85,0.00,,---,0.55,VWS V14.01,2013-09-18 02:23:00,
2013-09-17 22:28:00,80.9,76.0,29.88,South,176,7.0,10.0,85,0.00,,---,0.55,VWS V14.01,2013-09-18 02:28:00,
2013-09-17 22:33:00,80.9,76.0,29.88,South,176,8.0,17.0,85,0.00,,---,0.55,VWS V14.01,2013-09-18 02:33:00,
2013-09-17 22:38:00,80.9,76.0,29.88,South,176,8.0,11.0,85,0.00,,---,0.55,VWS V14.01,2013-09-18 02:38:00,
2013-09-17 22:43:00,80.9,76.0,29.88,South,176,5.0,10.0,85,0.00,,---,0.55,VWS V14.01,2013-09-18 02:43:00,
2013-09-17 22:48:00,80.9,76.0,29.88,South,176,5.0,8.0,85,0.00,,---,0.55,VWS V14.01,2013-09-18 02:48:00,
2013-09-17 22:53:00,80.8,75.5,29.88,South,176,10.0,12.0,84,0.00,,---,0.55,VWS V14.01,2013-09-18 02:53:00,
2013-09-17 22:58:00,80.9,75.6,29.88,South,177,1.0,8.0,84,0.00,,---,0.55,VWS V14.01,2013-09-18 02:58:00,
2013-09-17 23:03:00,80.9,75.6,29.88,South,176,6.0,13.0,84,0.00,,---,0.55,VWS V14.01,2013-09-18 03:03:00,
2013-09-17 23:08:00,81.0,75.7,29.88,South,176,6.0,15.0,84,0.00,,---,0.55,VWS V14.01,2013-09-18 03:08:00,
2013-09-17 23:13:00,81.1,76.2,29.88,South,176,13.0,13.0,85,0.00,,---,0.55,VWS V14.01,2013-09-18 03:13:00,
2013-09-17 23:18:00,81.0,76.1,29.88,South,176,10.0,11.0,85,0.00,,---,0.55,VWS V14.01,2013-09-18 03:18:00,
2013-09-17 23:23:00,80.9,76.0,29.88,South,176,1.0,6.0,85,0.00,,---,0.55,VWS V14.01,2013-09-18 03:23:00,
2013-09-17 23:28:00,80.7,75.8,29.88,South,176,2.0,9.0,85,0.00,,---,0.55,VWS V14.01,2013-09-18 03:28:00,
2013-09-17 23:33:00,80.7,75.4,29.88,South,176,5.0,11.0,84,0.00,,---,0.55,VWS V14.01,2013-09-18 03:33:00,
2013-09-17 23:38:00,80.7,75.4,29.88,South,176,6.0,8.0,84,0.00,,---,0.55,VWS V14.01,2013-09-18 03:38:00,
2013-09-17 23:43:00,80.7,75.4,29.88,South,176,2.0,9.0,84,0.00,,---,0.55,VWS V14.01,2013-09-18 03:43:00,
2013-09-17 23:48:00,80.5,74.9,29.88,South,176,0.0,5.0,83,0.00,,---,0.55,VWS V14.01,2013-09-18 03:48:00,
2013-09-17 23:53:00,80.7,75.1,29.88,South,176,1.0,5.0,83,0.00,,---,0.55,VWS V14.01,2013-09-18 03:53:00,
2013-09-17 23:58:00,80.8,75.5,29.88,South,176,8.0,8.0,84,0.00,,---,0.55,VWS V14.01,2013-09-18 03:58:00,